sensor_id;sensor_type;location;lat;lon;timestamp;pressure;altitude;pressure_sealevel;temperature
80962;BMP280;70424;55.154;14.722;2024-01-16T00:01:17;99788.78;;;-4.21
80962;BMP280;70424;55.154;14.722;2024-01-16T00:03:43;99782.75;;;-4.27
80962;BMP280;70424;55.154;14.722;2024-01-16T00:06:09;99777.47;;;-4.33
80962;BMP280;70424;55.154;14.722;2024-01-16T00:08:35;99789.03;;;-4.25
80962;BMP280;70424;55.154;14.722;2024-01-16T00:11:02;99784.25;;;-4.32
80962;BMP280;70424;55.154;14.722;2024-01-16T00:13:27;99794.09;;;-4.21
80962;BMP280;70424;55.154;14.722;2024-01-16T00:15:53;99778.50;;;-4.36
80962;BMP280;70424;55.154;14.722;2024-01-16T00:18:18;99813.28;;;-4.22
80962;BMP280;70424;55.154;14.722;2024-01-16T00:20:44;99790.38;;;-4.37
80962;BMP280;70424;55.154;14.722;2024-01-16T00:23:09;99802.19;;;-4.32
80962;BMP280;70424;55.154;14.722;2024-01-16T00:25:35;99779.78;;;-4.48
80962;BMP280;70424;55.154;14.722;2024-01-16T00:28:01;99820.09;;;-4.27
80962;BMP280;70424;55.154;14.722;2024-01-16T00:30:27;99807.13;;;-4.42
80962;BMP280;70424;55.154;14.722;2024-01-16T00:32:52;99815.81;;;-4.36
80962;BMP280;70424;55.154;14.722;2024-01-16T00:35:18;99794.81;;;-4.51
80962;BMP280;70424;55.154;14.722;2024-01-16T00:37:44;99808.06;;;-4.39
80962;BMP280;70424;55.154;14.722;2024-01-16T00:40:09;99804.03;;;-4.52
80962;BMP280;70424;55.154;14.722;2024-01-16T00:42:35;99817.31;;;-4.46
80962;BMP280;70424;55.154;14.722;2024-01-16T00:45:01;99839.84;;;-4.41
80962;BMP280;70424;55.154;14.722;2024-01-16T00:47:26;99826.16;;;-4.57
80962;BMP280;70424;55.154;14.722;2024-01-16T00:49:52;99829.72;;;-4.48
80962;BMP280;70424;55.154;14.722;2024-01-16T00:52:18;99823.94;;;-4.58
80962;BMP280;70424;55.154;14.722;2024-01-16T00:54:44;99842.50;;;-4.41
80962;BMP280;70424;55.154;14.722;2024-01-16T00:57:09;99824.69;;;-4.58
80962;BMP280;70424;55.154;14.722;2024-01-16T00:59:35;99846.94;;;-4.49
80962;BMP280;70424;55.154;14.722;2024-01-16T01:02:01;99836.09;;;-4.63
80962;BMP280;70424;55.154;14.722;2024-01-16T01:04:29;99828.41;;;-4.72
80962;BMP280;70424;55.154;14.722;2024-01-16T01:06:54;99853.25;;;-4.53
80962;BMP280;70424;55.154;14.722;2024-01-16T01:09:20;99833.72;;;-4.72
80962;BMP280;70424;55.154;14.722;2024-01-16T01:11:45;99845.59;;;-4.67
80962;BMP280;70424;55.154;14.722;2024-01-16T01:14:10;99877.22;;;-4.47
80962;BMP280;70424;55.154;14.722;2024-01-16T01:16:36;99858.41;;;-4.66
80962;BMP280;70424;55.154;14.722;2024-01-16T01:19:01;99841.00;;;-4.78
80962;BMP280;70424;55.154;14.722;2024-01-16T01:21:28;99865.47;;;-4.68
80962;BMP280;70424;55.154;14.722;2024-01-16T01:23:53;99876.09;;;-4.63
80962;BMP280;70424;55.154;14.722;2024-01-16T01:26:19;99885.75;;;-4.54
80962;BMP280;70424;55.154;14.722;2024-01-16T01:28:44;99903.91;;;-4.53
80962;BMP280;70424;55.154;14.722;2024-01-16T01:31:13;99877.78;;;-4.65
80962;BMP280;70424;55.154;14.722;2024-01-16T01:33:39;99872.28;;;-4.73
80962;BMP280;70424;55.154;14.722;2024-01-16T01:36:06;99883.84;;;-4.65
80962;BMP280;70424;55.154;14.722;2024-01-16T01:38:31;99909.72;;;-4.48
80962;BMP280;70424;55.154;14.722;2024-01-16T01:40:57;99893.34;;;-4.69
80962;BMP280;70424;55.154;14.722;2024-01-16T01:43:25;99912.16;;;-4.51
80962;BMP280;70424;55.154;14.722;2024-01-16T01:46:09;99918.69;;;-4.52
80962;BMP280;70424;55.154;14.722;2024-01-16T01:48:37;99905.16;;;-4.54
80962;BMP280;70424;55.154;14.722;2024-01-16T01:51:03;99917.03;;;-4.55
80962;BMP280;70424;55.154;14.722;2024-01-16T01:53:30;99892.88;;;-4.73
80962;BMP280;70424;55.154;14.722;2024-01-16T01:55:56;99913.41;;;-4.57
80962;BMP280;70424;55.154;14.722;2024-01-16T01:58:23;99932.03;;;-4.52
80962;BMP280;70424;55.154;14.722;2024-01-16T02:00:48;99914.19;;;-4.68
80962;BMP280;70424;55.154;14.722;2024-01-16T02:03:14;99908.34;;;-4.66
80962;BMP280;70424;55.154;14.722;2024-01-16T02:05:40;99908.16;;;-4.74
80962;BMP280;70424;55.154;14.722;2024-01-16T02:08:06;99899.94;;;-4.82
80962;BMP280;70424;55.154;14.722;2024-01-16T02:10:31;99931.81;;;-4.59
80962;BMP280;70424;55.154;14.722;2024-01-16T02:12:57;99957.72;;;-4.48
80962;BMP280;70424;55.154;14.722;2024-01-16T02:15:23;99963.06;;;-4.48
80962;BMP280;70424;55.154;14.722;2024-01-16T02:17:49;99942.75;;;-4.63
80962;BMP280;70424;55.154;14.722;2024-01-16T02:20:15;99946.59;;;-4.58
80962;BMP280;70424;55.154;14.722;2024-01-16T02:22:44;99941.03;;;-4.60
80962;BMP280;70424;55.154;14.722;2024-01-16T02:25:11;99977.81;;;-4.42
80962;BMP280;70424;55.154;14.722;2024-01-16T02:27:36;99950.25;;;-4.61
80962;BMP280;70424;55.154;14.722;2024-01-16T02:30:02;99939.59;;;-4.61
80962;BMP280;70424;55.154;14.722;2024-01-16T02:32:28;99978.56;;;-4.47
80962;BMP280;70424;55.154;14.722;2024-01-16T02:34:53;99941.34;;;-4.69
80962;BMP280;70424;55.154;14.722;2024-01-16T02:37:18;99981.94;;;-4.41
80962;BMP280;70424;55.154;14.722;2024-01-16T02:39:44;99958.25;;;-4.61
80962;BMP280;70424;55.154;14.722;2024-01-16T02:42:10;99999.63;;;-4.38
80962;BMP280;70424;55.154;14.722;2024-01-16T02:44:35;99988.47;;;-4.36
80962;BMP280;70424;55.154;14.722;2024-01-16T02:47:01;99970.09;;;-4.51
80962;BMP280;70424;55.154;14.722;2024-01-16T02:49:26;99998.44;;;-4.37
80962;BMP280;70424;55.154;14.722;2024-01-16T02:51:52;100003.50;;;-4.39
80962;BMP280;70424;55.154;14.722;2024-01-16T02:54:19;99994.53;;;-4.41
80962;BMP280;70424;55.154;14.722;2024-01-16T02:56:45;99972.06;;;-4.57
80962;BMP280;70424;55.154;14.722;2024-01-16T02:59:10;99984.16;;;-4.51
80962;BMP280;70424;55.154;14.722;2024-01-16T03:01:36;99983.41;;;-4.51
80962;BMP280;70424;55.154;14.722;2024-01-16T03:04:01;99998.44;;;-4.48
80962;BMP280;70424;55.154;14.722;2024-01-16T03:06:27;100018.53;;;-4.36
80962;BMP280;70424;55.154;14.722;2024-01-16T03:08:53;100017.81;;;-4.36
80962;BMP280;70424;55.154;14.722;2024-01-16T03:11:19;99998.69;;;-4.46
80962;BMP280;70424;55.154;14.722;2024-01-16T03:13:44;99987.59;;;-4.61
80962;BMP280;70424;55.154;14.722;2024-01-16T03:16:10;100016.41;;;-4.48
80962;BMP280;70424;55.154;14.722;2024-01-16T03:18:37;100023.91;;;-4.47
80962;BMP280;70424;55.154;14.722;2024-01-16T03:21:03;99988.34;;;-4.72
80962;BMP280;70424;55.154;14.722;2024-01-16T03:23:29;100026.34;;;-4.49
80962;BMP280;70424;55.154;14.722;2024-01-16T03:25:54;100007.47;;;-4.57
80962;BMP280;70424;55.154;14.722;2024-01-16T03:28:19;100008.91;;;-4.61
80962;BMP280;70424;55.154;14.722;2024-01-16T03:30:46;99999.72;;;-4.71
80962;BMP280;70424;55.154;14.722;2024-01-16T03:33:11;100035.06;;;-4.48
80962;BMP280;70424;55.154;14.722;2024-01-16T03:35:37;100042.06;;;-4.45
80962;BMP280;70424;55.154;14.722;2024-01-16T03:38:02;100042.09;;;-4.51
80962;BMP280;70424;55.154;14.722;2024-01-16T03:40:28;100037.25;;;-4.53
80962;BMP280;70424;55.154;14.722;2024-01-16T03:42:59;100026.59;;;-4.64
80962;BMP280;70424;55.154;14.722;2024-01-16T03:45:24;100042.84;;;-4.56
80962;BMP280;70424;55.154;14.722;2024-01-16T03:47:50;100021.06;;;-4.71
80962;BMP280;70424;55.154;14.722;2024-01-16T03:50:15;100055.69;;;-4.55
80962;BMP280;70424;55.154;14.722;2024-01-16T03:52:40;100032.72;;;-4.74
80962;BMP280;70424;55.154;14.722;2024-01-16T03:55:06;100063.91;;;-4.58
80962;BMP280;70424;55.154;14.722;2024-01-16T03:57:31;100072.19;;;-4.56
80962;BMP280;70424;55.154;14.722;2024-01-16T03:59:57;100076.06;;;-4.57
80962;BMP280;70424;55.154;14.722;2024-01-16T04:02:23;100020.38;;;-4.89
80962;BMP280;70424;55.154;14.722;2024-01-16T04:04:48;100040.94;;;-4.78
80962;BMP280;70424;55.154;14.722;2024-01-16T04:07:14;100075.81;;;-4.59
80962;BMP280;70424;55.154;14.722;2024-01-16T04:09:39;100070.47;;;-4.59
80962;BMP280;70424;55.154;14.722;2024-01-16T04:12:05;100080.41;;;-4.60
80962;BMP280;70424;55.154;14.722;2024-01-16T04:14:30;100075.31;;;-4.63
80962;BMP280;70424;55.154;14.722;2024-01-16T04:16:56;100080.91;;;-4.61
80962;BMP280;70424;55.154;14.722;2024-01-16T04:19:21;100069.25;;;-4.64
80962;BMP280;70424;55.154;14.722;2024-01-16T04:21:47;100048.22;;;-4.84
80962;BMP280;70424;55.154;14.722;2024-01-16T04:24:12;100059.88;;;-4.76
80962;BMP280;70424;55.154;14.722;2024-01-16T04:26:37;100064.94;;;-4.72
80962;BMP280;70424;55.154;14.722;2024-01-16T04:29:03;100084.31;;;-4.66
80962;BMP280;70424;55.154;14.722;2024-01-16T04:31:29;100065.91;;;-4.81
80962;BMP280;70424;55.154;14.722;2024-01-16T04:33:55;100060.09;;;-4.80
80962;BMP280;70424;55.154;14.722;2024-01-16T04:36:20;100078.25;;;-4.67
80962;BMP280;70424;55.154;14.722;2024-01-16T04:38:46;100085.75;;;-4.65
80962;BMP280;70424;55.154;14.722;2024-01-16T04:41:11;100086.97;;;-4.66
80962;BMP280;70424;55.154;14.722;2024-01-16T04:43:36;100071.97;;;-4.81
80962;BMP280;70424;55.154;14.722;2024-01-16T04:46:02;100078.03;;;-4.86
80962;BMP280;70424;55.154;14.722;2024-01-16T04:48:28;100091.38;;;-4.74
80962;BMP280;70424;55.154;14.722;2024-01-16T04:50:53;100080.94;;;-4.84
80962;BMP280;70424;55.154;14.722;2024-01-16T04:53:19;100087.22;;;-4.81
80962;BMP280;70424;55.154;14.722;2024-01-16T04:55:44;100070.53;;;-4.93
80962;BMP280;70424;55.154;14.722;2024-01-16T04:58:10;100081.91;;;-4.87
80962;BMP280;70424;55.154;14.722;2024-01-16T05:00:35;100098.63;;;-4.75
80962;BMP280;70424;55.154;14.722;2024-01-16T05:03:04;100095.25;;;-4.75
80962;BMP280;70424;55.154;14.722;2024-01-16T05:05:30;100080.94;;;-4.84
80962;BMP280;70424;55.154;14.722;2024-01-16T05:07:55;100085.78;;;-4.82
80962;BMP280;70424;55.154;14.722;2024-01-16T05:10:21;100079.75;;;-4.94
80962;BMP280;70424;55.154;14.722;2024-01-16T05:12:47;100075.88;;;-4.93
80962;BMP280;70424;55.154;14.722;2024-01-16T05:15:13;100101.78;;;-4.82
80962;BMP280;70424;55.154;14.722;2024-01-16T05:17:38;100074.16;;;-5.01
80962;BMP280;70424;55.154;14.722;2024-01-16T05:20:04;100115.06;;;-4.77
80962;BMP280;70424;55.154;14.722;2024-01-16T05:22:30;100096.66;;;-4.97
80962;BMP280;70424;55.154;14.722;2024-01-16T05:24:55;100087.50;;;-5.07
80962;BMP280;70424;55.154;14.722;2024-01-16T05:27:21;100103.47;;;-5.01
80962;BMP280;70424;55.154;14.722;2024-01-16T05:29:46;100122.38;;;-4.88
80962;BMP280;70424;55.154;14.722;2024-01-16T05:32:13;100111.22;;;-4.92
80962;BMP280;70424;55.154;14.722;2024-01-16T05:34:39;100140.53;;;-4.81
80962;BMP280;70424;55.154;14.722;2024-01-16T05:37:04;100116.34;;;-4.94
80962;BMP280;70424;55.154;14.722;2024-01-16T05:39:29;100096.72;;;-5.08
80962;BMP280;70424;55.154;14.722;2024-01-16T05:41:55;100131.59;;;-4.89
80962;BMP280;70424;55.154;14.722;2024-01-16T05:44:20;100131.09;;;-4.88
80962;BMP280;70424;55.154;14.722;2024-01-16T05:46:46;100139.09;;;-4.82
80962;BMP280;70424;55.154;14.722;2024-01-16T05:49:11;100128.44;;;-4.93
80962;BMP280;70424;55.154;14.722;2024-01-16T05:51:36;100140.31;;;-4.89
80962;BMP280;70424;55.154;14.722;2024-01-16T05:54:02;100147.56;;;-4.84
80962;BMP280;70424;55.154;14.722;2024-01-16T05:56:28;100130.34;;;-4.99
80962;BMP280;70424;55.154;14.722;2024-01-16T05:58:54;100158.22;;;-4.84
80962;BMP280;70424;55.154;14.722;2024-01-16T06:01:19;100142.97;;;-4.94
80962;BMP280;70424;55.154;14.722;2024-01-16T06:03:45;100152.66;;;-4.86
80962;BMP280;70424;55.154;14.722;2024-01-16T06:06:12;100145.13;;;-4.98
80962;BMP280;70424;55.154;14.722;2024-01-16T06:08:37;100142.47;;;-4.98
80962;BMP280;70424;55.154;14.722;2024-01-16T06:11:03;100147.06;;;-5.05
80962;BMP280;70424;55.154;14.722;2024-01-16T06:13:28;100137.84;;;-5.15
80962;BMP280;70424;55.154;14.722;2024-01-16T06:15:56;100165.97;;;-4.97
80962;BMP280;70424;55.154;14.722;2024-01-16T06:18:22;100170.81;;;-4.90
80962;BMP280;70424;55.154;14.722;2024-01-16T06:20:48;100151.19;;;-5.09
80962;BMP280;70424;55.154;14.722;2024-01-16T06:23:13;100175.91;;;-4.92
80962;BMP280;70424;55.154;14.722;2024-01-16T06:25:39;100170.06;;;-4.96
80962;BMP280;70424;55.154;14.722;2024-01-16T06:28:05;100181.25;;;-4.92
80962;BMP280;70424;55.154;14.722;2024-01-16T06:30:30;100154.84;;;-5.07
80962;BMP280;70424;55.154;14.722;2024-01-16T06:32:56;100169.84;;;-5.04
80962;BMP280;70424;55.154;14.722;2024-01-16T06:35:22;100181.22;;;-4.97
80962;BMP280;70424;55.154;14.722;2024-01-16T06:37:48;100183.69;;;-4.94
80962;BMP280;70424;55.154;14.722;2024-01-16T06:40:14;100191.19;;;-4.92
80962;BMP280;70424;55.154;14.722;2024-01-16T06:42:39;100183.88;;;-4.97
80962;BMP280;70424;55.154;14.722;2024-01-16T06:45:05;100189.22;;;-4.97
80962;BMP280;70424;55.154;14.722;2024-01-16T06:47:31;100190.22;;;-4.95
80962;BMP280;70424;55.154;14.722;2024-01-16T06:49:56;100192.16;;;-4.95
80962;BMP280;70424;55.154;14.722;2024-01-16T06:52:21;100198.66;;;-4.96
80962;BMP280;70424;55.154;14.722;2024-01-16T06:54:47;100209.31;;;-4.96
80962;BMP280;70424;55.154;14.722;2024-01-16T06:57:12;100205.19;;;-5.03
80962;BMP280;70424;55.154;14.722;2024-01-16T06:59:38;100212.97;;;-4.99
80962;BMP280;70424;55.154;14.722;2024-01-16T07:02:03;100189.44;;;-5.18
80962;BMP280;70424;55.154;14.722;2024-01-16T07:04:29;100202.75;;;-5.18
80962;BMP280;70424;55.154;14.722;2024-01-16T07:06:54;100204.19;;;-5.17
80962;BMP280;70424;55.154;14.722;2024-01-16T07:09:20;100222.13;;;-5.12
80962;BMP280;70424;55.154;14.722;2024-01-16T07:11:46;100231.59;;;-5.05
80962;BMP280;70424;55.154;14.722;2024-01-16T07:14:12;100238.16;;;-5.06
80962;BMP280;70424;55.154;14.722;2024-01-16T07:16:38;100243.25;;;-5.08
80962;BMP280;70424;55.154;14.722;2024-01-16T07:19:03;100240.06;;;-5.12
80962;BMP280;70424;55.154;14.722;2024-01-16T07:21:29;100249.31;;;-5.08
80962;BMP280;70424;55.154;14.722;2024-01-16T07:23:54;100251.97;;;-5.08
80962;BMP280;70424;55.154;14.722;2024-01-16T07:26:20;100257.03;;;-5.10
80962;BMP280;70424;55.154;14.722;2024-01-16T07:28:45;100243.44;;;-5.17
80962;BMP280;70424;55.154;14.722;2024-01-16T07:31:13;100247.81;;;-5.14
80962;BMP280;70424;55.154;14.722;2024-01-16T07:33:39;100249.75;;;-5.09
80962;BMP280;70424;55.154;14.722;2024-01-16T07:36:06;100235.44;;;-5.23
80962;BMP280;70424;55.154;14.722;2024-01-16T07:38:31;100253.38;;;-5.12
80962;BMP280;70424;55.154;14.722;2024-01-16T07:40:58;100262.63;;;-5.08
80962;BMP280;70424;55.154;14.722;2024-01-16T07:43:23;100249.47;;;-5.22
80962;BMP280;70424;55.154;14.722;2024-01-16T07:45:49;100274.00;;;-5.07
80962;BMP280;70424;55.154;14.722;2024-01-16T07:48:14;100282.25;;;-5.05
80962;BMP280;70424;55.154;14.722;2024-01-16T07:50:40;100273.53;;;-5.06
80962;BMP280;70424;55.154;14.722;2024-01-16T07:53:05;100259.91;;;-5.19
80962;BMP280;70424;55.154;14.722;2024-01-16T07:55:31;100276.41;;;-5.04
80962;BMP280;70424;55.154;14.722;2024-01-16T07:57:56;100258.47;;;-5.14
80962;BMP280;70424;55.154;14.722;2024-01-16T08:00:21;100253.84;;;-5.19
80962;BMP280;70424;55.154;14.722;2024-01-16T08:02:47;100277.16;;;-5.03
80962;BMP280;70424;55.154;14.722;2024-01-16T08:05:12;100274.25;;;-4.99
80962;BMP280;70424;55.154;14.722;2024-01-16T08:07:38;100281.75;;;-4.98
80962;BMP280;70424;55.154;14.722;2024-01-16T08:10:04;100282.03;;;-5.01
80962;BMP280;70424;55.154;14.722;2024-01-16T08:12:29;100279.59;;;-4.99
80962;BMP280;70424;55.154;14.722;2024-01-16T08:14:55;100299.47;;;-4.95
80962;BMP280;70424;55.154;14.722;2024-01-16T08:17:20;100288.53;;;-4.97
80962;BMP280;70424;55.154;14.722;2024-01-16T08:19:46;100296.53;;;-4.97
80962;BMP280;70424;55.154;14.722;2024-01-16T08:22:11;100302.88;;;-4.94
80962;BMP280;70424;55.154;14.722;2024-01-16T08:24:37;100303.13;;;-4.92
80962;BMP280;70424;55.154;14.722;2024-01-16T08:27:03;100296.09;;;-4.95
80962;BMP280;70424;55.154;14.722;2024-01-16T08:29:28;100299.50;;;-4.89
80962;BMP280;70424;55.154;14.722;2024-01-16T08:31:53;100287.81;;;-5.03
80962;BMP280;70424;55.154;14.722;2024-01-16T08:34:19;100296.09;;;-4.95
80962;BMP280;70424;55.154;14.722;2024-01-16T08:36:45;100293.16;;;-4.97
80962;BMP280;70424;55.154;14.722;2024-01-16T08:39:11;100290.75;;;-4.90
80962;BMP280;70424;55.154;14.722;2024-01-16T08:41:37;100311.16;;;-4.81
80962;BMP280;70424;55.154;14.722;2024-01-16T08:44:02;100309.94;;;-4.80
80962;BMP280;70424;55.154;14.722;2024-01-16T08:46:28;100305.56;;;-4.83
80962;BMP280;70424;55.154;14.722;2024-01-16T08:48:53;100313.56;;;-4.78
80962;BMP280;70424;55.154;14.722;2024-01-16T08:51:19;100317.25;;;-4.75
80962;BMP280;70424;55.154;14.722;2024-01-16T08:53:44;100312.09;;;-4.79
80962;BMP280;70424;55.154;14.722;2024-01-16T08:56:10;100320.16;;;-4.73
80962;BMP280;70424;55.154;14.722;2024-01-16T08:58:38;100307.25;;;-4.80
80962;BMP280;70424;55.154;14.722;2024-01-16T09:01:04;100313.38;;;-4.68
80962;BMP280;70424;55.154;14.722;2024-01-16T09:03:33;100322.34;;;-4.66
80962;BMP280;70424;55.154;14.722;2024-01-16T09:05:59;100314.81;;;-4.67
80962;BMP280;70424;55.154;14.722;2024-01-16T09:08:26;100328.88;;;-4.61
80962;BMP280;70424;55.154;14.722;2024-01-16T09:10:52;100324.28;;;-4.61
80962;BMP280;70424;55.154;14.722;2024-01-16T09:13:18;100336.19;;;-4.56
80962;BMP280;70424;55.154;14.722;2024-01-16T09:15:45;100338.38;;;-4.55
80962;BMP280;70424;55.154;14.722;2024-01-16T09:18:12;100334.72;;;-4.52
80962;BMP280;70424;55.154;14.722;2024-01-16T09:20:37;100335.94;;;-4.53
80962;BMP280;70424;55.154;14.722;2024-01-16T09:23:03;100333.28;;;-4.53
80962;BMP280;70424;55.154;14.722;2024-01-16T09:25:28;100341.53;;;-4.45
80962;BMP280;70424;55.154;14.722;2024-01-16T09:27:55;100317.00;;;-4.60
80962;BMP280;70424;55.154;14.722;2024-01-16T09:30:20;100339.34;;;-4.41
80962;BMP280;70424;55.154;14.722;2024-01-16T09:32:48;100342.00;;;-4.41
80962;BMP280;70424;55.154;14.722;2024-01-16T09:35:13;100349.06;;;-4.32
80962;BMP280;70424;55.154;14.722;2024-01-16T09:37:39;100342.06;;;-4.30
80962;BMP280;70424;55.154;14.722;2024-01-16T09:40:05;100350.78;;;-4.23
80962;BMP280;70424;55.154;14.722;2024-01-16T09:42:31;100338.63;;;-4.19
80962;BMP280;70424;55.154;14.722;2024-01-16T09:44:57;100346.91;;;-4.11
80962;BMP280;70424;55.154;14.722;2024-01-16T09:47:24;100354.19;;;-4.06
80962;BMP280;70424;55.154;14.722;2024-01-16T09:49:50;100343.28;;;-4.08
80962;BMP280;70424;55.154;14.722;2024-01-16T09:52:15;100358.09;;;-3.96
80962;BMP280;70424;55.154;14.722;2024-01-16T09:54:41;100338.91;;;-3.94
80962;BMP280;70424;55.154;14.722;2024-01-16T09:57:07;100346.16;;;-3.78
80962;BMP280;70424;55.154;14.722;2024-01-16T09:59:36;100341.81;;;-3.81
80962;BMP280;70424;55.154;14.722;2024-01-16T10:02:02;100356.59;;;-3.63
80962;BMP280;70424;55.154;14.722;2024-01-16T10:04:33;100356.09;;;-3.56
80962;BMP280;70424;55.154;14.722;2024-01-16T10:07:01;100357.31;;;-3.52
80962;BMP280;70424;55.154;14.722;2024-01-16T10:09:27;100361.88;;;-3.41
80962;BMP280;70424;55.154;14.722;2024-01-16T10:11:53;100361.38;;;-3.34
80962;BMP280;70424;55.154;14.722;2024-01-16T10:14:19;100359.19;;;-3.30
80962;BMP280;70424;55.154;14.722;2024-01-16T10:17:04;100374.00;;;-3.17
80962;BMP280;70424;55.154;14.722;2024-01-16T10:19:52;100375.88;;;-3.07
80962;BMP280;70424;55.154;14.722;2024-01-16T10:22:22;100381.66;;;-2.97
80962;BMP280;70424;55.154;14.722;2024-01-16T10:24:54;100372.66;;;-2.88
80962;BMP280;70424;55.154;14.722;2024-01-16T10:27:28;100354.22;;;-2.92
80962;BMP280;70424;55.154;14.722;2024-01-16T10:29:57;100368.41;;;-2.67
80962;BMP280;70424;55.154;14.722;2024-01-16T10:32:29;100362.06;;;-2.58
80962;BMP280;70424;55.154;14.722;2024-01-16T10:35:11;100354.25;;;-2.56
80962;BMP280;70424;55.154;14.722;2024-01-16T10:40:07;100365.75;;;-2.31
80962;BMP280;70424;55.154;14.722;2024-01-16T10:42:32;100354.56;;;-2.35
80962;BMP280;70424;55.154;14.722;2024-01-16T10:44:59;100359.31;;;-2.17
80962;BMP280;70424;55.154;14.722;2024-01-16T10:47:24;100360.50;;;-2.12
80962;BMP280;70424;55.154;14.722;2024-01-16T10:49:50;100353.94;;;-2.11
80962;BMP280;70424;55.154;14.722;2024-01-16T10:52:17;100375.16;;;-1.89
80962;BMP280;70424;55.154;14.722;2024-01-16T10:54:43;100383.41;;;-1.81
80962;BMP280;70424;55.154;14.722;2024-01-16T10:57:13;100376.31;;;-1.79
80962;BMP280;70424;55.154;14.722;2024-01-16T11:02:24;100380.06;;;-1.63
80962;BMP280;70424;55.154;14.722;2024-01-16T11:04:54;100388.25;;;-1.55
80962;BMP280;70424;55.154;14.722;2024-01-16T11:07:20;100366.81;;;-1.55
80962;BMP280;70424;55.154;14.722;2024-01-16T11:09:48;100393.22;;;-1.41
80962;BMP280;70424;55.154;14.722;2024-01-16T11:12:14;100383.41;;;-1.38
80962;BMP280;70424;55.154;14.722;2024-01-16T11:14:42;100384.84;;;-1.31
80962;BMP280;70424;55.154;14.722;2024-01-16T11:17:08;100364.00;;;-1.44
80962;BMP280;70424;55.154;14.722;2024-01-16T11:19:37;100391.59;;;-1.25
80962;BMP280;70424;55.154;14.722;2024-01-16T11:22:02;100398.84;;;-1.20
80962;BMP280;70424;55.154;14.722;2024-01-16T11:24:30;100392.03;;;-1.21
80962;BMP280;70424;55.154;14.722;2024-01-16T11:26:55;100378.28;;;-1.30
80962;BMP280;70424;55.154;14.722;2024-01-16T11:31:53;100404.28;;;-1.06
80962;BMP280;70424;55.154;14.722;2024-01-16T11:37:13;100388.91;;;-1.25
80962;BMP280;70424;55.154;14.722;2024-01-16T11:39:38;100403.38;;;-1.09
80962;BMP280;70424;55.154;14.722;2024-01-16T11:42:05;100406.97;;;-1.06
80962;BMP280;70424;55.154;14.722;2024-01-16T11:44:49;100403.78;;;-1.05
80962;BMP280;70424;55.154;14.722;2024-01-16T11:47:20;100389.50;;;-1.13
80962;BMP280;70424;55.154;14.722;2024-01-16T11:49:46;100409.16;;;-1.05
80962;BMP280;70424;55.154;14.722;2024-01-16T11:52:12;100410.31;;;-1.00
80962;BMP280;70424;55.154;14.722;2024-01-16T11:54:40;100384.44;;;-1.17
80962;BMP280;70424;55.154;14.722;2024-01-16T11:59:57;100405.09;;;-0.93
80962;BMP280;70424;55.154;14.722;2024-01-16T12:05:11;100399.38;;;-0.84
80962;BMP280;70424;55.154;14.722;2024-01-16T12:07:47;100404.97;;;-0.82
80962;BMP280;70424;55.154;14.722;2024-01-16T12:10:15;100382.41;;;-0.92
80962;BMP280;70424;55.154;14.722;2024-01-16T12:12:41;100401.91;;;-0.72
80962;BMP280;70424;55.154;14.722;2024-01-16T12:15:13;100402.56;;;-0.66
80962;BMP280;70424;55.154;14.722;2024-01-16T12:17:53;100395.16;;;-0.60
80962;BMP280;70424;55.154;14.722;2024-01-16T12:20:20;100400.25;;;-0.57
80962;BMP280;70424;55.154;14.722;2024-01-16T12:22:55;100398.56;;;-0.60
80962;BMP280;70424;55.154;14.722;2024-01-16T12:25:21;100379.63;;;-0.67
80962;BMP280;70424;55.154;14.722;2024-01-16T12:28:00;100401.16;;;-0.54
80962;BMP280;70424;55.154;14.722;2024-01-16T12:30:34;100396.59;;;-0.59
80962;BMP280;70424;55.154;14.722;2024-01-16T12:35:42;100396.47;;;-0.67
80962;BMP280;70424;55.154;14.722;2024-01-16T12:38:09;100394.09;;;-0.70
80962;BMP280;70424;55.154;14.722;2024-01-16T12:40:35;100396.06;;;-0.71
80962;BMP280;70424;55.154;14.722;2024-01-16T12:43:04;100401.63;;;-0.69
80962;BMP280;70424;55.154;14.722;2024-01-16T12:45:30;100402.63;;;-0.72
80962;BMP280;70424;55.154;14.722;2024-01-16T12:47:56;100410.53;;;-0.79
80962;BMP280;70424;55.154;14.722;2024-01-16T12:50:26;100404.53;;;-0.86
80962;BMP280;70424;55.154;14.722;2024-01-16T12:53:09;100398.78;;;-0.95
80962;BMP280;70424;55.154;14.722;2024-01-16T12:55:36;100399.13;;;-1.04
80962;BMP280;70424;55.154;14.722;2024-01-16T12:58:21;100401.69;;;-1.12
80962;BMP280;70424;55.154;14.722;2024-01-16T13:00:52;100389.63;;;-1.24
80962;BMP280;70424;55.154;14.722;2024-01-16T13:03:22;100394.06;;;-1.27
80962;BMP280;70424;55.154;14.722;2024-01-16T13:05:58;100387.13;;;-1.41
80962;BMP280;70424;55.154;14.722;2024-01-16T13:08:24;100386.41;;;-1.42
80962;BMP280;70424;55.154;14.722;2024-01-16T13:11:04;100397.91;;;-1.47
80962;BMP280;70424;55.154;14.722;2024-01-16T13:13:29;100394.28;;;-1.49
80962;BMP280;70424;55.154;14.722;2024-01-16T13:15:55;100392.16;;;-1.56
80962;BMP280;70424;55.154;14.722;2024-01-16T13:18:25;100397.78;;;-1.60
80962;BMP280;70424;55.154;14.722;2024-01-16T13:20:52;100388.81;;;-1.63
80962;BMP280;70424;55.154;14.722;2024-01-16T13:23:19;100402.69;;;-1.64
80962;BMP280;70424;55.154;14.722;2024-01-16T13:25:47;100405.94;;;-1.71
80962;BMP280;70424;55.154;14.722;2024-01-16T13:28:17;100410.63;;;-1.77
80962;BMP280;70424;55.154;14.722;2024-01-16T13:30:43;100396.34;;;-1.85
80962;BMP280;70424;55.154;14.722;2024-01-16T13:33:09;100387.88;;;-1.95
80962;BMP280;70424;55.154;14.722;2024-01-16T13:35:37;100399.03;;;-1.91
80962;BMP280;70424;55.154;14.722;2024-01-16T13:38:05;100399.13;;;-2.02
80962;BMP280;70424;55.154;14.722;2024-01-16T13:40:31;100395.69;;;-1.97
80962;BMP280;70424;55.154;14.722;2024-01-16T13:42:56;100388.41;;;-2.02
80962;BMP280;70424;55.154;14.722;2024-01-16T13:45:22;100395.47;;;-1.99
80962;BMP280;70424;55.154;14.722;2024-01-16T13:47:48;100387.41;;;-1.99
80962;BMP280;70424;55.154;14.722;2024-01-16T13:50:13;100389.09;;;-1.96
80962;BMP280;70424;55.154;14.722;2024-01-16T13:52:39;100383.03;;;-2.02
80962;BMP280;70424;55.154;14.722;2024-01-16T13:55:06;100371.72;;;-2.14
80962;BMP280;70424;55.154;14.722;2024-01-16T13:57:31;100379.72;;;-2.08
80962;BMP280;70424;55.154;14.722;2024-01-16T13:59:57;100385.78;;;-2.08
80962;BMP280;70424;55.154;14.722;2024-01-16T14:02:24;100375.38;;;-2.17